Portada
METAR-TAF:

METAR-TAF

Aeroports :

Làrnaca, Xipre

latitud: 34-53N, longitud: 033-38E, altitud: 2 m

Observació

L'informe es va fer fa 20 minuts, a les 08:30 UTC
Vent 6 kt del Est/Sud-Est, variant entre Est i Sud/Sud-Est
Temperatura 29°C
Humitat 58%
Pressió 1014 hPa
Visibilitat 10 km o més
Escasses núvols a una alçada de 3000 ft

METAR: LCLK 240830Z 12006KT 090V160 9999 FEW030 29/20 Q1014 NOSIG

Hora: 11:50 (08:50 UTC)

Pronòstic

L'informe es va fer fa 3 hores i 20 minuts, a les 05:30 UTC
Pronòstic vàlid del 24 a les 06 UTC al 25 a les 06 UTC
Vent 10 kt del Sud-Est
Visibilitat 10 km o més
Escasses núvols a una alçada de 2500 ft
Evolucionant progressivament
l' 24 a les 08 UTC al 24 a les 12 UTC
Vent 14 kt del Sud/Sud-Oest
Evolucionant progressivament
l' 24 a les 16 UTC al 24 a les 20 UTC
Vent 6 kt del Nord-Oest

TAF: LCLK 240530Z 2406/2506 14010KT 9999 FEW025 BECMG 2408/2412 21014KT BECMG 2416/2420 32006KT

Observacions i pronòstics meteorològics de més de 4000 aeroports (METAR i TAF).

Les estacions disponibles són els punts grocs i vermells al mapa.

Posi el ratolí al punt desitjat per veure el nom de l'estació.

Feu clic per veure les observacions i els pronòstics meteorològics.

Per canviar el mapa: feu clic els botons verds amb una creu de color negre per apropar; al botó verd amb un guió per allunyar la imatge; o en les fletxes verdes per a mapes adjacents.


METAR-TAF: